KCLM/CLM METAR and TAF weather

Enter ICAO airport designator
Station Type Date Time Source
KCLM METAR 2019/12/13 13:53 UTC NOAA

KCLM 131353Z AUTO 23005KT 10SM SCT045 OVC055 05/04 A3007 RMK AO2 RAB23E49 SLP184 P0000 T00500039


Station Type Date Time Source
KCLM Decoded METAR 2019/12/13 13:53 UTC NOAA

PORT ANGELES FAIRCHILD INTERNATIONAL , WA, United States (KCLM) 48-07N 123-30W 85M
Dec 13, 2019 - 08:53 AM EST / 2019.12.13 1353 UTC
Wind: from the SW (230 degrees) at 6 MPH (5 KT):0
Visibility: 10 mile(s):0
Sky conditions: overcast
Precipitation last hour: A trace
Temperature: 41.0 F (5.0 C)
Dew Point: 39.0 F (3.9 C)
Relative Humidity: 92%
Pressure (altimeter): 30.07 in. Hg (1018 hPa)
ob: KCLM 131353Z AUTO 23005KT 10SM SCT045 OVC055 05/04 A3007 RMK AO2 RAB23E49 SLP184 P0000 T00500039
cycle: 14

Station Type Date Time Source
KCLM TAF 2019/12/13 12:22 UTC NOAA

TAF KCLM 131120Z 1312/1412 VRB04KT P6SM VCSH SCT040 OVC060
TEMPO 1312/1316 5SM -SHRA BR OVC035
FM131700 VRB04KT P6SM BKN060
FM140300 23003KT P6SM VCSH SCT030 OVC050
FM140700 23004KT P6SM OVC025

Example: see airport list